<?xml version="1.0" encoding="UTF-8"?>
<gpx version="1.1" creator="2bulu-scraper" xmlns="http://www.topografix.com/GPX/1/1">
  <metadata><name>七星山断崖环线（半日）</name><desc>source: 2bulu.com trackId=76217677; exported 2026-08-30T14:28:26.846Z</desc></metadata>
  <wpt lat="28.7570829" lon="104.6628494"><ele>258</ele><name>
        </name></wpt>
  <wpt lat="28.7566186" lon="104.6644254"><ele>283</ele><name>
        </name></wpt>
  <wpt lat="28.7562225" lon="104.6651475"><ele>301</ele><name>向右
        </name></wpt>
  <wpt lat="28.7558992" lon="104.6651585"><ele>297</ele><name>右转
        </name></wpt>
  <wpt lat="28.7556767" lon="104.664592"><ele>303</ele><name>向左
        </name></wpt>
  <wpt lat="28.7527163" lon="104.6646795"><ele>402</ele><name>与马路汇合
        </name></wpt>
  <wpt lat="28.7514982" lon="104.6644144"><ele>426</ele><name>继续往前
        </name></wpt>
  <wpt lat="28.7514577" lon="104.665184"><ele>434</ele><name>右转
        </name></wpt>
  <wpt lat="28.7513489" lon="104.6652852"><ele>444</ele><name>再往左向上爬
        </name></wpt>
  <wpt lat="28.7520305" lon="104.6661098"><ele>470</ele><name>继续往上
        </name></wpt>
  <wpt lat="28.752585" lon="104.66774"><ele>507</ele><name>爬上去与马路汇合
        </name></wpt>
  <wpt lat="28.752775" lon="104.6678883"><ele>519</ele><name>沿着马路继续向上爬
        </name></wpt>
  <wpt lat="28.7547476" lon="104.6702187"><ele>528</ele><name>从这里往下
        </name></wpt>
  <wpt lat="28.7525602" lon="104.6678842"><ele>508</ele><name>直行
        </name></wpt>
  <wpt lat="28.7508085" lon="104.6662711"><ele>509</ele><name>与公路汇合后往下走
        </name></wpt>
  <wpt lat="28.7492541" lon="104.6639813"><ele>481</ele><name>往上
        </name></wpt>
  <wpt lat="28.7469041" lon="104.6630944"><ele>543</ele><name>往右
        </name></wpt>
  <wpt lat="28.7446217" lon="104.6609233"><ele>527</ele><name>从这下来和公路汇合
        </name></wpt>
  <wpt lat="28.744434" lon="104.6607724"><ele>531</ele><name>再往上爬
        </name></wpt>
  <wpt lat="28.7441672" lon="104.660501"><ele>529</ele><name>从这里进小路
        </name></wpt>
  <wpt lat="28.7446655" lon="104.6601185"><ele>498</ele><name>走下来与公路汇合
        </name></wpt>
  <wpt lat="28.7448775" lon="104.6605305"><ele>491</ele><name>再从这条小路下去
        </name></wpt>
  <wpt lat="28.7448713" lon="104.6602559"><ele>481</ele><name>穿过去
        </name></wpt>
  <wpt lat="28.7452402" lon="104.6605943"><ele>467</ele><name>继续往前
        </name></wpt>
  <wpt lat="28.7458817" lon="104.6602444"><ele>482</ele><name>往下
        </name></wpt>
  <wpt lat="28.7458438" lon="104.6600332"><ele>483</ele><name>与公路汇合
        </name></wpt>
  <wpt lat="28.7458501" lon="104.65978"><ele>468</ele><name>往右
        </name></wpt>
  <wpt lat="28.7464754" lon="104.6602514"><ele>463</ele><name>直行
        </name></wpt>
  <wpt lat="28.746795" lon="104.6605401"><ele>461</ele><name>往下
        </name></wpt>
  <wpt lat="28.7469517" lon="104.6607767"><ele>455</ele><name>往下
        </name></wpt>
  <wpt lat="28.74705" lon="104.6607967"><ele>458</ele><name>继续往下
        </name></wpt>
  <wpt lat="28.74705" lon="104.6607967"><ele>458</ele><name>继续往下
        </name></wpt>
  <wpt lat="28.7476566" lon="104.6604636"><ele>442</ele><name>往马路上走（往下走更近）
        </name></wpt>
  <wpt lat="28.7496683" lon="104.6625483"><ele>458</ele><name>往下
        </name></wpt>
  <wpt lat="28.7497" lon="104.6620737"><ele>431</ele><name>继续往下走
        </name></wpt>
  <wpt lat="28.74982" lon="104.66184"><ele>431</ele><name>往右（上）
        </name></wpt>
  <wpt lat="28.7526534" lon="104.6646842"><ele>407</ele><name>往下
        </name></wpt>
  <trk><name>七星山断崖环线（半日）</name>
      <trkseg>
        <trkpt lat="28.7570829" lon="104.6628494"><ele>258.1</ele><time>2025-12-06T21:38:24.000Z</time></trkpt>
        <trkpt lat="28.7569885" lon="104.6628538"><ele>258.1</ele><time>2025-12-06T21:38:48.000Z</time></trkpt>
        <trkpt lat="28.7569" lon="104.6628668"><ele>258.06</ele><time>2025-12-06T21:38:54.000Z</time></trkpt>
        <trkpt lat="28.7567964" lon="104.6628911"><ele>257.3</ele><time>2025-12-06T21:39:02.000Z</time></trkpt>
        <trkpt lat="28.7566906" lon="104.6629128"><ele>255.49</ele><time>2025-12-06T21:39:12.000Z</time></trkpt>
        <trkpt lat="28.7565964" lon="104.6629245"><ele>254.03</ele><time>2025-12-06T21:39:24.000Z</time></trkpt>
        <trkpt lat="28.756533" lon="104.6630047"><ele>255.05</ele><time>2025-12-06T21:39:40.000Z</time></trkpt>
        <trkpt lat="28.7564989" lon="104.6631125"><ele>256.19</ele><time>2025-12-06T21:39:52.000Z</time></trkpt>
        <trkpt lat="28.7564685" lon="104.663218"><ele>257.4</ele><time>2025-12-06T21:40:00.000Z</time></trkpt>
        <trkpt lat="28.7564908" lon="104.6632704"><ele>258.3</ele><time>2025-12-06T21:40:10.000Z</time></trkpt>
        <trkpt lat="28.7565456" lon="104.6633418"><ele>262.52</ele><time>2025-12-06T21:40:28.000Z</time></trkpt>
        <trkpt lat="28.7565021" lon="104.6633933"><ele>256.87</ele><time>2025-12-06T21:40:40.000Z</time></trkpt>
        <trkpt lat="28.7564766" lon="104.6634827"><ele>253.1</ele><time>2025-12-06T21:40:50.000Z</time></trkpt>
        <trkpt lat="28.7564585" lon="104.6635882"><ele>249.66</ele><time>2025-12-06T21:41:02.000Z</time></trkpt>
        <trkpt lat="28.756494" lon="104.6636844"><ele>250.15</ele><time>2025-12-06T21:41:14.000Z</time></trkpt>
        <trkpt lat="28.7565116" lon="104.6637918"><ele>257.79</ele><time>2025-12-06T21:41:24.000Z</time></trkpt>
        <trkpt lat="28.7565259" lon="104.6639028"><ele>262.87</ele><time>2025-12-06T21:41:34.000Z</time></trkpt>
        <trkpt lat="28.7565385" lon="104.6640157"><ele>266.49</ele><time>2025-12-06T21:41:48.000Z</time></trkpt>
        <trkpt lat="28.7565453" lon="104.6641248"><ele>269.77</ele><time>2025-12-06T21:42:04.000Z</time></trkpt>
        <trkpt lat="28.7565701" lon="104.6642247"><ele>272.92</ele><time>2025-12-06T21:42:14.000Z</time></trkpt>
        <trkpt lat="28.7565805" lon="104.6643311"><ele>276.14</ele><time>2025-12-06T21:42:24.000Z</time></trkpt>
        <trkpt lat="28.7566186" lon="104.6644254"><ele>279.18</ele><time>2025-12-06T21:42:32.000Z</time></trkpt>
        <trkpt lat="28.7566021" lon="104.6645189"><ele>280.99</ele><time>2025-12-06T21:43:24.000Z</time></trkpt>
        <trkpt lat="28.7564993" lon="104.6646215"><ele>280.74</ele><time>2025-12-06T21:44:16.000Z</time></trkpt>
        <trkpt lat="28.7563883" lon="104.6647983"><ele>279.13</ele><time>2025-12-06T21:45:22.000Z</time></trkpt>
        <trkpt lat="28.7563167" lon="104.664865"><ele>283.16</ele><time>2025-12-06T21:45:38.000Z</time></trkpt>
        <trkpt lat="28.7562662" lon="104.6649585"><ele>285.89</ele><time>2025-12-06T21:46:32.000Z</time></trkpt>
        <trkpt lat="28.756267" lon="104.6650631"><ele>287.53</ele><time>2025-12-06T21:46:52.000Z</time></trkpt>
        <trkpt lat="28.7562225" lon="104.6651475"><ele>289.75</ele><time>2025-12-06T21:47:32.000Z</time></trkpt>
        <trkpt lat="28.7561725" lon="104.6652403"><ele>294.59</ele><time>2025-12-06T21:47:48.000Z</time></trkpt>
        <trkpt lat="28.7560922" lon="104.6652401"><ele>296.1</ele><time>2025-12-06T21:48:00.000Z</time></trkpt>
        <trkpt lat="28.7560016" lon="104.6652019"><ele>293.65</ele><time>2025-12-06T21:48:12.000Z</time></trkpt>
        <trkpt lat="28.7558992" lon="104.6651585"><ele>292.38</ele><time>2025-12-06T21:48:26.000Z</time></trkpt>
        <trkpt lat="28.7558016" lon="104.6651606"><ele>294.5</ele><time>2025-12-06T21:48:36.000Z</time></trkpt>
        <trkpt lat="28.7557061" lon="104.6651908"><ele>296.43</ele><time>2025-12-06T21:48:46.000Z</time></trkpt>
        <trkpt lat="28.7556043" lon="104.6651952"><ele>297.32</ele><time>2025-12-06T21:49:04.000Z</time></trkpt>
        <trkpt lat="28.7555117" lon="104.6651518"><ele>298.35</ele><time>2025-12-06T21:49:16.000Z</time></trkpt>
        <trkpt lat="28.7554279" lon="104.6650938"><ele>299.66</ele><time>2025-12-06T21:49:32.000Z</time></trkpt>
        <trkpt lat="28.7554134" lon="104.6649943"><ele>301.1</ele><time>2025-12-06T21:49:46.000Z</time></trkpt>
        <trkpt lat="28.7554699" lon="104.6649121"><ele>302.9</ele><time>2025-12-06T21:50:00.000Z</time></trkpt>
        <trkpt lat="28.7555658" lon="104.6648584"><ele>304.37</ele><time>2025-12-06T21:50:14.000Z</time></trkpt>
        <trkpt lat="28.7556637" lon="104.6648061"><ele>304.81</ele><time>2025-12-06T21:50:30.000Z</time></trkpt>
        <trkpt lat="28.7556957" lon="104.6646993"><ele>303.82</ele><time>2025-12-06T21:50:44.000Z</time></trkpt>
        <trkpt lat="28.7556767" lon="104.664592"><ele>303.21</ele><time>2025-12-06T21:50:56.000Z</time></trkpt>
        <trkpt lat="28.7556036" lon="104.6645973"><ele>302.9</ele><time>2025-12-06T21:51:18.000Z</time></trkpt>
        <trkpt lat="28.7555034" lon="104.6646026"><ele>306.64</ele><time>2025-12-06T21:51:34.000Z</time></trkpt>
        <trkpt lat="28.7553945" lon="104.6645888"><ele>308.65</ele><time>2025-12-06T21:51:54.000Z</time></trkpt>
        <trkpt lat="28.7552991" lon="104.6645513"><ele>309.7</ele><time>2025-12-06T21:52:18.000Z</time></trkpt>
        <trkpt lat="28.7552013" lon="104.664546"><ele>311.55</ele><time>2025-12-06T21:52:40.000Z</time></trkpt>
        <trkpt lat="28.7551096" lon="104.6645285"><ele>313.85</ele><time>2025-12-06T21:52:56.000Z</time></trkpt>
        <trkpt lat="28.7550205" lon="104.6644878"><ele>316.15</ele><time>2025-12-06T21:53:18.000Z</time></trkpt>
        <trkpt lat="28.754925" lon="104.66464"><ele>318.88</ele><time>2025-12-06T21:54:24.000Z</time></trkpt>
        <trkpt lat="28.7548467" lon="104.6647267"><ele>325.51</ele><time>2025-12-06T21:54:50.000Z</time></trkpt>
        <trkpt lat="28.7547613" lon="104.6647118"><ele>331.1</ele><time>2025-12-06T21:55:20.000Z</time></trkpt>
        <trkpt lat="28.7546785" lon="104.6646699"><ele>337.12</ele><time>2025-12-06T21:55:52.000Z</time></trkpt>
        <trkpt lat="28.7545902" lon="104.664658"><ele>343.87</ele><time>2025-12-06T21:56:10.000Z</time></trkpt>
        <trkpt lat="28.7545175" lon="104.6647065"><ele>349.21</ele><time>2025-12-06T21:56:28.000Z</time></trkpt>
        <trkpt lat="28.7544245" lon="104.6647802"><ele>353.6</ele><time>2025-12-06T21:57:04.000Z</time></trkpt>
        <trkpt lat="28.7543309" lon="104.6648262"><ele>357.13</ele><time>2025-12-06T21:57:26.000Z</time></trkpt>
        <trkpt lat="28.7542366" lon="104.664809"><ele>359.7</ele><time>2025-12-06T21:57:46.000Z</time></trkpt>
        <trkpt lat="28.7541412" lon="104.6647862"><ele>362.41</ele><time>2025-12-06T21:58:04.000Z</time></trkpt>
        <trkpt lat="28.7540494" lon="104.6647747"><ele>365.46</ele><time>2025-12-06T21:58:20.000Z</time></trkpt>
        <trkpt lat="28.7539592" lon="104.6648008"><ele>366.64</ele><time>2025-12-06T21:58:42.000Z</time></trkpt>
        <trkpt lat="28.7538895" lon="104.664875"><ele>368.34</ele><time>2025-12-06T21:59:26.000Z</time></trkpt>
        <trkpt lat="28.753807" lon="104.6649449"><ele>370.35</ele><time>2025-12-06T21:59:40.000Z</time></trkpt>
        <trkpt lat="28.7538002" lon="104.665051"><ele>372.91</ele><time>2025-12-06T22:00:12.000Z</time></trkpt>
        <trkpt lat="28.7537396" lon="104.6650898"><ele>378.97</ele><time>2025-12-06T22:00:32.000Z</time></trkpt>
        <trkpt lat="28.7536433" lon="104.6651617"><ele>382.38</ele><time>2025-12-06T22:02:04.000Z</time></trkpt>
        <trkpt lat="28.7536017" lon="104.6650117"><ele>384.07</ele><time>2025-12-06T22:03:30.000Z</time></trkpt>
        <trkpt lat="28.7536" lon="104.6649033"><ele>384.98</ele><time>2025-12-06T22:04:10.000Z</time></trkpt>
        <trkpt lat="28.7535744" lon="104.6648035"><ele>381.94</ele><time>2025-12-06T22:04:32.000Z</time></trkpt>
        <trkpt lat="28.7535059" lon="104.6647334"><ele>380.42</ele><time>2025-12-06T22:04:42.000Z</time></trkpt>
        <trkpt lat="28.7534151" lon="104.664704"><ele>380.8</ele><time>2025-12-06T22:05:06.000Z</time></trkpt>
        <trkpt lat="28.7533492" lon="104.6647696"><ele>382.09</ele><time>2025-12-06T22:05:26.000Z</time></trkpt>
        <trkpt lat="28.7532736" lon="104.6648408"><ele>384.24</ele><time>2025-12-06T22:05:44.000Z</time></trkpt>
        <trkpt lat="28.753196" lon="104.6649096"><ele>386.81</ele><time>2025-12-06T22:06:10.000Z</time></trkpt>
        <trkpt lat="28.7531081" lon="104.6649185"><ele>390.5</ele><time>2025-12-06T22:06:32.000Z</time></trkpt>
        <trkpt lat="28.7530345" lon="104.6648608"><ele>393.25</ele><time>2025-12-06T22:06:42.000Z</time></trkpt>
        <trkpt lat="28.7529493" lon="104.6648412"><ele>395.51</ele><time>2025-12-06T22:06:58.000Z</time></trkpt>
        <trkpt lat="28.7528834" lon="104.664774"><ele>396.71</ele><time>2025-12-06T22:07:18.000Z</time></trkpt>
        <trkpt lat="28.7528024" lon="104.6647299"><ele>397.78</ele><time>2025-12-06T22:07:32.000Z</time></trkpt>
        <trkpt lat="28.7527163" lon="104.6646795"><ele>398.52</ele><time>2025-12-06T22:08:00.000Z</time></trkpt>
        <trkpt lat="28.7526033" lon="104.66466"><ele>400.19</ele><time>2025-12-06T22:09:50.000Z</time></trkpt>
        <trkpt lat="28.75253" lon="104.6645867"><ele>403.94</ele><time>2025-12-06T22:10:10.000Z</time></trkpt>
        <trkpt lat="28.7524454" lon="104.664526"><ele>404.82</ele><time>2025-12-06T22:10:30.000Z</time></trkpt>
        <trkpt lat="28.7523601" lon="104.6644663"><ele>404.99</ele><time>2025-12-06T22:10:50.000Z</time></trkpt>
        <trkpt lat="28.7522707" lon="104.6644146"><ele>406.28</ele><time>2025-12-06T22:11:08.000Z</time></trkpt>
        <trkpt lat="28.7521813" lon="104.6643704"><ele>406.94</ele><time>2025-12-06T22:11:18.000Z</time></trkpt>
        <trkpt lat="28.7521385" lon="104.664356"><ele>407.18</ele><time>2025-12-06T22:11:26.000Z</time></trkpt>
        <trkpt lat="28.7520993" lon="104.6642842"><ele>407.53</ele><time>2025-12-06T22:11:44.000Z</time></trkpt>
        <trkpt lat="28.7520201" lon="104.6642581"><ele>407.69</ele><time>2025-12-06T22:12:06.000Z</time></trkpt>
        <trkpt lat="28.7519449" lon="104.664306"><ele>408.47</ele><time>2025-12-06T22:12:38.000Z</time></trkpt>
        <trkpt lat="28.7518699" lon="104.664377"><ele>410.07</ele><time>2025-12-06T22:13:00.000Z</time></trkpt>
        <trkpt lat="28.7517806" lon="104.6643965"><ele>412.54</ele><time>2025-12-06T22:13:34.000Z</time></trkpt>
        <trkpt lat="28.7516838" lon="104.6643896"><ele>413.42</ele><time>2025-12-06T22:14:00.000Z</time></trkpt>
        <trkpt lat="28.7515889" lon="104.6643839"><ele>414.66</ele><time>2025-12-06T22:14:16.000Z</time></trkpt>
        <trkpt lat="28.7514982" lon="104.6644144"><ele>417.69</ele><time>2025-12-06T22:14:36.000Z</time></trkpt>
        <trkpt lat="28.7514105" lon="104.6643925"><ele>421.26</ele><time>2025-12-06T22:15:04.000Z</time></trkpt>
        <trkpt lat="28.7513353" lon="104.6643276"><ele>428.16</ele><time>2025-12-06T22:15:32.000Z</time></trkpt>
        <trkpt lat="28.7512469" lon="104.6643617"><ele>431.66</ele><time>2025-12-06T22:15:48.000Z</time></trkpt>
        <trkpt lat="28.7511704" lon="104.6644254"><ele>434.86</ele><time>2025-12-06T22:16:04.000Z</time></trkpt>
        <trkpt lat="28.7511587" lon="104.6645339"><ele>437.07</ele><time>2025-12-06T22:16:20.000Z</time></trkpt>
        <trkpt lat="28.7511902" lon="104.6646702"><ele>436.83</ele><time>2025-12-06T22:16:32.000Z</time></trkpt>
        <trkpt lat="28.7512336" lon="104.6647874"><ele>436.99</ele><time>2025-12-06T22:16:38.000Z</time></trkpt>
        <trkpt lat="28.7512871" lon="104.664895"><ele>436.43</ele><time>2025-12-06T22:16:52.000Z</time></trkpt>
        <trkpt lat="28.7513463" lon="104.6649856"><ele>436.25</ele><time>2025-12-06T22:17:02.000Z</time></trkpt>
        <trkpt lat="28.7514079" lon="104.6650826"><ele>435.07</ele><time>2025-12-06T22:17:12.000Z</time></trkpt>
        <trkpt lat="28.7514577" lon="104.665184"><ele>433.83</ele><time>2025-12-06T22:17:26.000Z</time></trkpt>
        <trkpt lat="28.751501" lon="104.6652784"><ele>433.9</ele><time>2025-12-06T22:17:38.000Z</time></trkpt>
        <trkpt lat="28.7514432" lon="104.6652963"><ele>435.97</ele><time>2025-12-06T22:18:02.000Z</time></trkpt>
        <trkpt lat="28.7513489" lon="104.6652852"><ele>440.11</ele><time>2025-12-06T22:18:30.000Z</time></trkpt>
        <trkpt lat="28.75137" lon="104.6653717"><ele>441.78</ele><time>2025-12-06T22:20:10.000Z</time></trkpt>
        <trkpt lat="28.7514167" lon="104.6654617"><ele>446.39</ele><time>2025-12-06T22:20:36.000Z</time></trkpt>
        <trkpt lat="28.7514929" lon="104.6655404"><ele>448.85</ele><time>2025-12-06T22:20:50.000Z</time></trkpt>
        <trkpt lat="28.7515577" lon="104.6656184"><ele>450.2</ele><time>2025-12-06T22:21:04.000Z</time></trkpt>
        <trkpt lat="28.7516429" lon="104.6656547"><ele>452.4</ele><time>2025-12-06T22:21:18.000Z</time></trkpt>
        <trkpt lat="28.7517154" lon="104.6657225"><ele>455.49</ele><time>2025-12-06T22:21:34.000Z</time></trkpt>
        <trkpt lat="28.7517621" lon="104.6658104"><ele>458.9</ele><time>2025-12-06T22:21:48.000Z</time></trkpt>
        <trkpt lat="28.7518345" lon="104.6658814"><ele>460.96</ele><time>2025-12-06T22:22:04.000Z</time></trkpt>
        <trkpt lat="28.7518864" lon="104.6659724"><ele>463.3</ele><time>2025-12-06T22:22:20.000Z</time></trkpt>
        <trkpt lat="28.7519502" lon="104.6660497"><ele>464.29</ele><time>2025-12-06T22:22:38.000Z</time></trkpt>
        <trkpt lat="28.7520305" lon="104.6661098"><ele>465.71</ele><time>2025-12-06T22:22:54.000Z</time></trkpt>
        <trkpt lat="28.7521127" lon="104.666165"><ele>467.69</ele><time>2025-12-06T22:23:18.000Z</time></trkpt>
        <trkpt lat="28.7521884" lon="104.6662346"><ele>470.27</ele><time>2025-12-06T22:23:38.000Z</time></trkpt>
        <trkpt lat="28.7522385" lon="104.6663278"><ele>471.45</ele><time>2025-12-06T22:23:54.000Z</time></trkpt>
        <trkpt lat="28.7523193" lon="104.6663966"><ele>472.16</ele><time>2025-12-06T22:24:14.000Z</time></trkpt>
        <trkpt lat="28.7524066" lon="104.6664477"><ele>473.47</ele><time>2025-12-06T22:24:32.000Z</time></trkpt>
        <trkpt lat="28.7524851" lon="104.6665127"><ele>475.37</ele><time>2025-12-06T22:24:44.000Z</time></trkpt>
        <trkpt lat="28.7525384" lon="104.666603"><ele>475.77</ele><time>2025-12-06T22:24:58.000Z</time></trkpt>
        <trkpt lat="28.752565" lon="104.6667074"><ele>477.16</ele><time>2025-12-06T22:25:22.000Z</time></trkpt>
        <trkpt lat="28.7526045" lon="104.666803"><ele>479.84</ele><time>2025-12-06T22:25:52.000Z</time></trkpt>
        <trkpt lat="28.7526095" lon="104.6669051"><ele>483.31</ele><time>2025-12-06T22:26:06.000Z</time></trkpt>
        <trkpt lat="28.7525887" lon="104.6670068"><ele>484.08</ele><time>2025-12-06T22:26:22.000Z</time></trkpt>
        <trkpt lat="28.7525869" lon="104.6671265"><ele>484.39</ele><time>2025-12-06T22:26:44.000Z</time></trkpt>
        <trkpt lat="28.752577" lon="104.6672388"><ele>484.44</ele><time>2025-12-06T22:26:54.000Z</time></trkpt>
        <trkpt lat="28.7525745" lon="104.6673523"><ele>483.56</ele><time>2025-12-06T22:27:02.000Z</time></trkpt>
        <trkpt lat="28.7526179" lon="104.6674435"><ele>483.84</ele><time>2025-12-06T22:27:12.000Z</time></trkpt>
        <trkpt lat="28.7525983" lon="104.6675333"><ele>485.63</ele><time>2025-12-06T22:30:36.000Z</time></trkpt>
        <trkpt lat="28.7525633" lon="104.6676333"><ele>493.01</ele><time>2025-12-06T22:44:16.000Z</time></trkpt>
        <trkpt lat="28.752585" lon="104.66774"><ele>496.62</ele><time>2025-12-06T22:44:52.000Z</time></trkpt>
        <trkpt lat="28.7526447" lon="104.6678199"><ele>500.96</ele><time>2025-12-06T22:45:26.000Z</time></trkpt>
        <trkpt lat="28.752775" lon="104.6678883"><ele>505.97</ele><time>2025-12-06T22:46:34.000Z</time></trkpt>
        <trkpt lat="28.75284" lon="104.667965"><ele>511.57</ele><time>2025-12-06T22:46:56.000Z</time></trkpt>
        <trkpt lat="28.752905" lon="104.6680515"><ele>514.04</ele><time>2025-12-06T22:47:16.000Z</time></trkpt>
        <trkpt lat="28.752934" lon="104.6681643"><ele>514.62</ele><time>2025-12-06T22:47:32.000Z</time></trkpt>
        <trkpt lat="28.7529379" lon="104.668279"><ele>514.91</ele><time>2025-12-06T22:47:58.000Z</time></trkpt>
        <trkpt lat="28.7529339" lon="104.6683885"><ele>514.05</ele><time>2025-12-06T22:48:10.000Z</time></trkpt>
        <trkpt lat="28.7529567" lon="104.6684951"><ele>513.55</ele><time>2025-12-06T22:48:28.000Z</time></trkpt>
        <trkpt lat="28.7530211" lon="104.6685842"><ele>515.08</ele><time>2025-12-06T22:48:40.000Z</time></trkpt>
        <trkpt lat="28.7530902" lon="104.6686694"><ele>517.63</ele><time>2025-12-06T22:48:54.000Z</time></trkpt>
        <trkpt lat="28.7531735" lon="104.6687316"><ele>521.19</ele><time>2025-12-06T22:49:08.000Z</time></trkpt>
        <trkpt lat="28.753264" lon="104.6687974"><ele>524.98</ele><time>2025-12-06T22:49:22.000Z</time></trkpt>
        <trkpt lat="28.7533556" lon="104.6688562"><ele>528.17</ele><time>2025-12-06T22:49:34.000Z</time></trkpt>
        <trkpt lat="28.7534375" lon="104.6689143"><ele>530.29</ele><time>2025-12-06T22:49:46.000Z</time></trkpt>
        <trkpt lat="28.7535202" lon="104.6689616"><ele>532.45</ele><time>2025-12-06T22:49:56.000Z</time></trkpt>
        <trkpt lat="28.7536033" lon="104.6690067"><ele>534.79</ele><time>2025-12-06T22:50:06.000Z</time></trkpt>
        <trkpt lat="28.7537054" lon="104.6690092"><ele>536.26</ele><time>2025-12-06T22:50:30.000Z</time></trkpt>
        <trkpt lat="28.7537943" lon="104.6690393"><ele>535.29</ele><time>2025-12-06T22:50:40.000Z</time></trkpt>
        <trkpt lat="28.7538812" lon="104.6690846"><ele>534.69</ele><time>2025-12-06T22:50:52.000Z</time></trkpt>
        <trkpt lat="28.75396" lon="104.6691441"><ele>534.35</ele><time>2025-12-06T22:51:02.000Z</time></trkpt>
        <trkpt lat="28.7540298" lon="104.6692229"><ele>534.46</ele><time>2025-12-06T22:51:16.000Z</time></trkpt>
        <trkpt lat="28.754093" lon="104.6693025"><ele>534.65</ele><time>2025-12-06T22:51:28.000Z</time></trkpt>
        <trkpt lat="28.7541597" lon="104.6693807"><ele>535.14</ele><time>2025-12-06T22:51:38.000Z</time></trkpt>
        <trkpt lat="28.7541996" lon="104.66948"><ele>535.68</ele><time>2025-12-06T22:51:48.000Z</time></trkpt>
        <trkpt lat="28.7542287" lon="104.669584"><ele>535.82</ele><time>2025-12-06T22:51:58.000Z</time></trkpt>
        <trkpt lat="28.7542591" lon="104.6696909"><ele>535.34</ele><time>2025-12-06T22:52:10.000Z</time></trkpt>
        <trkpt lat="28.7542916" lon="104.6697978"><ele>532.53</ele><time>2025-12-06T22:52:20.000Z</time></trkpt>
        <trkpt lat="28.7543204" lon="104.6699015"><ele>529.85</ele><time>2025-12-06T22:52:32.000Z</time></trkpt>
        <trkpt lat="28.7543919" lon="104.669995"><ele>527.42</ele><time>2025-12-06T22:52:48.000Z</time></trkpt>
        <trkpt lat="28.7544757" lon="104.6700734"><ele>526.77</ele><time>2025-12-06T22:52:58.000Z</time></trkpt>
        <trkpt lat="28.7545605" lon="104.6701419"><ele>526.87</ele><time>2025-12-06T22:53:08.000Z</time></trkpt>
        <trkpt lat="28.7545825" lon="104.6701602"><ele>526.06</ele><time>2025-12-06T22:53:16.000Z</time></trkpt>
        <trkpt lat="28.7546582" lon="104.6701927"><ele>524.14</ele><time>2025-12-06T22:53:30.000Z</time></trkpt>
        <trkpt lat="28.7547476" lon="104.6702187"><ele>521.93</ele><time>2025-12-06T22:54:24.000Z</time></trkpt>
        <trkpt lat="28.7548457" lon="104.6702295"><ele>524.54</ele><time>2025-12-06T22:54:52.000Z</time></trkpt>
        <trkpt lat="28.7549504" lon="104.670247"><ele>526.29</ele><time>2025-12-06T22:55:04.000Z</time></trkpt>
        <trkpt lat="28.75505" lon="104.6702995"><ele>524.4</ele><time>2025-12-06T22:55:12.000Z</time></trkpt>
        <trkpt lat="28.7551117" lon="104.6703889"><ele>522.08</ele><time>2025-12-06T22:55:20.000Z</time></trkpt>
        <trkpt lat="28.7551354" lon="104.6704963"><ele>519.64</ele><time>2025-12-06T22:55:30.000Z</time></trkpt>
        <trkpt lat="28.7551585" lon="104.6706098"><ele>518.33</ele><time>2025-12-06T22:55:42.000Z</time></trkpt>
        <trkpt lat="28.7552133" lon="104.6707042"><ele>516.6</ele><time>2025-12-06T22:55:54.000Z</time></trkpt>
        <trkpt lat="28.7552988" lon="104.6707437"><ele>515.61</ele><time>2025-12-06T22:56:06.000Z</time></trkpt>
        <trkpt lat="28.7553897" lon="104.6707006"><ele>515.26</ele><time>2025-12-06T22:56:18.000Z</time></trkpt>
        <trkpt lat="28.7554742" lon="104.6706166"><ele>513.82</ele><time>2025-12-06T22:56:28.000Z</time></trkpt>
        <trkpt lat="28.7555549" lon="104.6705289"><ele>511.92</ele><time>2025-12-06T22:56:44.000Z</time></trkpt>
        <trkpt lat="28.7556439" lon="104.6705142"><ele>510.83</ele><time>2025-12-06T22:56:58.000Z</time></trkpt>
        <trkpt lat="28.7557371" lon="104.6705331"><ele>510.3</ele><time>2025-12-06T22:57:18.000Z</time></trkpt>
        <trkpt lat="28.7558152" lon="104.6704955"><ele>507.55</ele><time>2025-12-06T22:57:34.000Z</time></trkpt>
        <trkpt lat="28.7558834" lon="104.6704279"><ele>506.5</ele><time>2025-12-06T22:57:42.000Z</time></trkpt>
        <trkpt lat="28.7558533" lon="104.6703083"><ele>505.29</ele><time>2025-12-06T23:01:38.000Z</time></trkpt>
        <trkpt lat="28.7559167" lon="104.67039"><ele>501.17</ele><time>2025-12-06T23:02:46.000Z</time></trkpt>
        <trkpt lat="28.755835" lon="104.670465"><ele>501.05</ele><time>2025-12-06T23:03:22.000Z</time></trkpt>
        <trkpt lat="28.7559017" lon="104.6705383"><ele>501.5</ele><time>2025-12-06T23:08:14.000Z</time></trkpt>
        <trkpt lat="28.7558233" lon="104.670465"><ele>504.08</ele><time>2025-12-06T23:13:38.000Z</time></trkpt>
        <trkpt lat="28.7557317" lon="104.670395"><ele>502.07</ele><time>2025-12-06T23:14:22.000Z</time></trkpt>
        <trkpt lat="28.7556414" lon="104.6703631"><ele>500.28</ele><time>2025-12-06T23:14:32.000Z</time></trkpt>
        <trkpt lat="28.7555475" lon="104.6703533"><ele>500.2</ele><time>2025-12-06T23:14:42.000Z</time></trkpt>
        <trkpt lat="28.75545" lon="104.6704749"><ele>500.5</ele><time>2025-12-06T23:15:18.000Z</time></trkpt>
        <trkpt lat="28.75536" lon="104.670555"><ele>500.93</ele><time>2025-12-06T23:16:32.000Z</time></trkpt>
        <trkpt lat="28.7552817" lon="104.6706267"><ele>499.02</ele><time>2025-12-06T23:17:02.000Z</time></trkpt>
        <trkpt lat="28.7551963" lon="104.6705869"><ele>498.71</ele><time>2025-12-06T23:17:32.000Z</time></trkpt>
        <trkpt lat="28.7551457" lon="104.670494"><ele>500.69</ele><time>2025-12-06T23:17:58.000Z</time></trkpt>
        <trkpt lat="28.7550959" lon="104.6703989"><ele>503.92</ele><time>2025-12-06T23:18:12.000Z</time></trkpt>
        <trkpt lat="28.7550341" lon="104.6703187"><ele>506.66</ele><time>2025-12-06T23:18:30.000Z</time></trkpt>
        <trkpt lat="28.7549697" lon="104.6702355"><ele>509.17</ele><time>2025-12-06T23:18:44.000Z</time></trkpt>
        <trkpt lat="28.7548893" lon="104.6701872"><ele>510.91</ele><time>2025-12-06T23:18:52.000Z</time></trkpt>
        <trkpt lat="28.7547983" lon="104.6701497"><ele>512.24</ele><time>2025-12-06T23:19:04.000Z</time></trkpt>
        <trkpt lat="28.7546995" lon="104.6701134"><ele>513.86</ele><time>2025-12-06T23:19:20.000Z</time></trkpt>
        <trkpt lat="28.7546126" lon="104.6700648"><ele>515.42</ele><time>2025-12-06T23:19:32.000Z</time></trkpt>
        <trkpt lat="28.7545274" lon="104.6700159"><ele>516.14</ele><time>2025-12-06T23:19:44.000Z</time></trkpt>
        <trkpt lat="28.7544489" lon="104.6699621"><ele>516.86</ele><time>2025-12-06T23:19:54.000Z</time></trkpt>
        <trkpt lat="28.754374" lon="104.6698929"><ele>517.18</ele><time>2025-12-06T23:20:08.000Z</time></trkpt>
        <trkpt lat="28.7543275" lon="104.6697996"><ele>517.1</ele><time>2025-12-06T23:20:26.000Z</time></trkpt>
        <trkpt lat="28.7543098" lon="104.6696923"><ele>517.7</ele><time>2025-12-06T23:20:40.000Z</time></trkpt>
        <trkpt lat="28.7542794" lon="104.669578"><ele>517.74</ele><time>2025-12-06T23:20:54.000Z</time></trkpt>
        <trkpt lat="28.7542357" lon="104.6694678"><ele>517.64</ele><time>2025-12-06T23:21:10.000Z</time></trkpt>
        <trkpt lat="28.7542052" lon="104.6693643"><ele>518.83</ele><time>2025-12-06T23:21:20.000Z</time></trkpt>
        <trkpt lat="28.7541561" lon="104.6692687"><ele>520.15</ele><time>2025-12-06T23:21:30.000Z</time></trkpt>
        <trkpt lat="28.754101" lon="104.6691696"><ele>521.42</ele><time>2025-12-06T23:21:42.000Z</time></trkpt>
        <trkpt lat="28.754032" lon="104.669075"><ele>522.36</ele><time>2025-12-06T23:21:54.000Z</time></trkpt>
        <trkpt lat="28.7539572" lon="104.669007"><ele>523.24</ele><time>2025-12-06T23:22:02.000Z</time></trkpt>
        <trkpt lat="28.7538778" lon="104.6689546"><ele>524.21</ele><time>2025-12-06T23:22:16.000Z</time></trkpt>
        <trkpt lat="28.7537864" lon="104.6689115"><ele>525.28</ele><time>2025-12-06T23:22:28.000Z</time></trkpt>
        <trkpt lat="28.7536913" lon="104.6688787"><ele>526.36</ele><time>2025-12-06T23:22:40.000Z</time></trkpt>
        <trkpt lat="28.7535959" lon="104.6688433"><ele>528.19</ele><time>2025-12-06T23:22:50.000Z</time></trkpt>
        <trkpt lat="28.7535074" lon="104.6688044"><ele>530.34</ele><time>2025-12-06T23:23:02.000Z</time></trkpt>
        <trkpt lat="28.7534156" lon="104.6687636"><ele>531.31</ele><time>2025-12-06T23:23:22.000Z</time></trkpt>
        <trkpt lat="28.7533212" lon="104.6687271"><ele>531.18</ele><time>2025-12-06T23:23:44.000Z</time></trkpt>
        <trkpt lat="28.7532359" lon="104.6686746"><ele>531.53</ele><time>2025-12-06T23:23:52.000Z</time></trkpt>
        <trkpt lat="28.7531555" lon="104.6686186"><ele>531.43</ele><time>2025-12-06T23:24:00.000Z</time></trkpt>
        <trkpt lat="28.7530739" lon="104.6685483"><ele>531.16</ele><time>2025-12-06T23:24:08.000Z</time></trkpt>
        <trkpt lat="28.7529951" lon="104.6684746"><ele>529.93</ele><time>2025-12-06T23:24:20.000Z</time></trkpt>
        <trkpt lat="28.7529535" lon="104.6683745"><ele>526.86</ele><time>2025-12-06T23:24:34.000Z</time></trkpt>
        <trkpt lat="28.7529328" lon="104.6682643"><ele>521.93</ele><time>2025-12-06T23:24:46.000Z</time></trkpt>
        <trkpt lat="28.7529138" lon="104.6681522"><ele>517.32</ele><time>2025-12-06T23:24:58.000Z</time></trkpt>
        <trkpt lat="28.7528855" lon="104.6680397"><ele>512.45</ele><time>2025-12-06T23:25:10.000Z</time></trkpt>
        <trkpt lat="28.7528326" lon="104.6679481"><ele>508.25</ele><time>2025-12-06T23:25:20.000Z</time></trkpt>
        <trkpt lat="28.7527579" lon="104.667867"><ele>505.18</ele><time>2025-12-06T23:25:30.000Z</time></trkpt>
        <trkpt lat="28.7526615" lon="104.6678516"><ele>503.64</ele><time>2025-12-06T23:25:38.000Z</time></trkpt>
        <trkpt lat="28.7525602" lon="104.6678842"><ele>504.61</ele><time>2025-12-06T23:25:48.000Z</time></trkpt>
        <trkpt lat="28.7524506" lon="104.6679151"><ele>505.9</ele><time>2025-12-06T23:26:02.000Z</time></trkpt>
        <trkpt lat="28.7523444" lon="104.667918"><ele>506.67</ele><time>2025-12-06T23:26:14.000Z</time></trkpt>
        <trkpt lat="28.7522532" lon="104.6678869"><ele>503.72</ele><time>2025-12-06T23:26:24.000Z</time></trkpt>
        <trkpt lat="28.7521691" lon="104.6678312"><ele>501.9</ele><time>2025-12-06T23:26:34.000Z</time></trkpt>
        <trkpt lat="28.7521397" lon="104.6677346"><ele>500.22</ele><time>2025-12-06T23:26:48.000Z</time></trkpt>
        <trkpt lat="28.7521445" lon="104.6676254"><ele>498.88</ele><time>2025-12-06T23:27:00.000Z</time></trkpt>
        <trkpt lat="28.7521661" lon="104.6675165"><ele>498.72</ele><time>2025-12-06T23:27:12.000Z</time></trkpt>
        <trkpt lat="28.7522163" lon="104.6674076"><ele>498.19</ele><time>2025-12-06T23:27:26.000Z</time></trkpt>
        <trkpt lat="28.7522755" lon="104.6673026"><ele>497.59</ele><time>2025-12-06T23:27:40.000Z</time></trkpt>
        <trkpt lat="28.7523323" lon="104.6672023"><ele>497.04</ele><time>2025-12-06T23:27:52.000Z</time></trkpt>
        <trkpt lat="28.7523698" lon="104.6670938"><ele>496.12</ele><time>2025-12-06T23:28:06.000Z</time></trkpt>
        <trkpt lat="28.7523793" lon="104.6669784"><ele>496.45</ele><time>2025-12-06T23:28:14.000Z</time></trkpt>
        <trkpt lat="28.7523527" lon="104.6668534"><ele>497.85</ele><time>2025-12-06T23:28:22.000Z</time></trkpt>
        <trkpt lat="28.7522998" lon="104.6667541"><ele>499.98</ele><time>2025-12-06T23:28:32.000Z</time></trkpt>
        <trkpt lat="28.7522364" lon="104.6666727"><ele>502.74</ele><time>2025-12-06T23:28:40.000Z</time></trkpt>
        <trkpt lat="28.7521584" lon="104.6666118"><ele>504.06</ele><time>2025-12-06T23:28:50.000Z</time></trkpt>
        <trkpt lat="28.752066" lon="104.6665769"><ele>505.58</ele><time>2025-12-06T23:28:58.000Z</time></trkpt>
        <trkpt lat="28.7519528" lon="104.6665496"><ele>506.32</ele><time>2025-12-06T23:29:08.000Z</time></trkpt>
        <trkpt lat="28.75185" lon="104.6664889"><ele>506.91</ele><time>2025-12-06T23:29:20.000Z</time></trkpt>
        <trkpt lat="28.7517681" lon="104.6664005"><ele>506.05</ele><time>2025-12-06T23:29:34.000Z</time></trkpt>
        <trkpt lat="28.7516933" lon="104.6663216"><ele>504.99</ele><time>2025-12-06T23:29:44.000Z</time></trkpt>
        <trkpt lat="28.7515888" lon="104.666272"><ele>505.21</ele><time>2025-12-06T23:29:56.000Z</time></trkpt>
        <trkpt lat="28.7514927" lon="104.6662801"><ele>506.54</ele><time>2025-12-06T23:30:04.000Z</time></trkpt>
        <trkpt lat="28.7513945" lon="104.666294"><ele>508.11</ele><time>2025-12-06T23:30:14.000Z</time></trkpt>
        <trkpt lat="28.7512946" lon="104.6663063"><ele>509.05</ele><time>2025-12-06T23:30:26.000Z</time></trkpt>
        <trkpt lat="28.7511929" lon="104.6663344"><ele>509.16</ele><time>2025-12-06T23:30:36.000Z</time></trkpt>
        <trkpt lat="28.7510958" lon="104.6663408"><ele>508.27</ele><time>2025-12-06T23:30:48.000Z</time></trkpt>
        <trkpt lat="28.7509906" lon="104.666349"><ele>507.21</ele><time>2025-12-06T23:30:58.000Z</time></trkpt>
        <trkpt lat="28.7508935" lon="104.6663258"><ele>506.43</ele><time>2025-12-06T23:31:08.000Z</time></trkpt>
        <trkpt lat="28.7508085" lon="104.6662711"><ele>506.8</ele><time>2025-12-06T23:31:20.000Z</time></trkpt>
        <trkpt lat="28.7507603" lon="104.666208"><ele>507.92</ele><time>2025-12-06T23:31:36.000Z</time></trkpt>
        <trkpt lat="28.7506909" lon="104.666157"><ele>510.41</ele><time>2025-12-06T23:32:08.000Z</time></trkpt>
        <trkpt lat="28.7506514" lon="104.6660622"><ele>510.49</ele><time>2025-12-06T23:32:24.000Z</time></trkpt>
        <trkpt lat="28.7506038" lon="104.6659706"><ele>509.81</ele><time>2025-12-06T23:32:46.000Z</time></trkpt>
        <trkpt lat="28.7505229" lon="104.6659127"><ele>506.84</ele><time>2025-12-06T23:32:56.000Z</time></trkpt>
        <trkpt lat="28.7504518" lon="104.6658432"><ele>503.72</ele><time>2025-12-06T23:33:06.000Z</time></trkpt>
        <trkpt lat="28.7503559" lon="104.6657772"><ele>500.7</ele><time>2025-12-06T23:33:18.000Z</time></trkpt>
        <trkpt lat="28.7502737" lon="104.6656898"><ele>498.55</ele><time>2025-12-06T23:33:42.000Z</time></trkpt>
        <trkpt lat="28.7502068" lon="104.6656082"><ele>496.81</ele><time>2025-12-06T23:33:52.000Z</time></trkpt>
        <trkpt lat="28.750148" lon="104.6655235"><ele>496.07</ele><time>2025-12-06T23:34:06.000Z</time></trkpt>
        <trkpt lat="28.750089" lon="104.6654267"><ele>495.7</ele><time>2025-12-06T23:34:16.000Z</time></trkpt>
        <trkpt lat="28.7500302" lon="104.6653382"><ele>494.8</ele><time>2025-12-06T23:34:24.000Z</time></trkpt>
        <trkpt lat="28.749971" lon="104.6652436"><ele>493.08</ele><time>2025-12-06T23:34:44.000Z</time></trkpt>
        <trkpt lat="28.7499077" lon="104.665143"><ele>490.98</ele><time>2025-12-06T23:34:54.000Z</time></trkpt>
        <trkpt lat="28.7498653" lon="104.6650443"><ele>489.1</ele><time>2025-12-06T23:35:02.000Z</time></trkpt>
        <trkpt lat="28.7498232" lon="104.6649355"><ele>488.8</ele><time>2025-12-06T23:35:14.000Z</time></trkpt>
        <trkpt lat="28.7497826" lon="104.6648645"><ele>487.81</ele><time>2025-12-06T23:35:26.000Z</time></trkpt>
        <trkpt lat="28.7497471" lon="104.6647604"><ele>487.59</ele><time>2025-12-06T23:35:50.000Z</time></trkpt>
        <trkpt lat="28.7497105" lon="104.6646537"><ele>485.44</ele><time>2025-12-06T23:36:02.000Z</time></trkpt>
        <trkpt lat="28.749658" lon="104.664547"><ele>484.35</ele><time>2025-12-06T23:36:12.000Z</time></trkpt>
        <trkpt lat="28.7495944" lon="104.6644446"><ele>483.34</ele><time>2025-12-06T23:36:22.000Z</time></trkpt>
        <trkpt lat="28.7495226" lon="104.6643429"><ele>482.72</ele><time>2025-12-06T23:36:34.000Z</time></trkpt>
        <trkpt lat="28.7494551" lon="104.6642514"><ele>481.12</ele><time>2025-12-06T23:36:44.000Z</time></trkpt>
        <trkpt lat="28.7493863" lon="104.6641573"><ele>479.22</ele><time>2025-12-06T23:36:54.000Z</time></trkpt>
        <trkpt lat="28.7493187" lon="104.6640679"><ele>477.75</ele><time>2025-12-06T23:37:02.000Z</time></trkpt>
        <trkpt lat="28.7492541" lon="104.6639813"><ele>478.24</ele><time>2025-12-06T23:37:10.000Z</time></trkpt>
        <trkpt lat="28.7492234" lon="104.6639755"><ele>479.21</ele><time>2025-12-06T23:37:20.000Z</time></trkpt>
        <trkpt lat="28.7491722" lon="104.6639213"><ele>481.53</ele><time>2025-12-06T23:37:54.000Z</time></trkpt>
        <trkpt lat="28.7490583" lon="104.6638767"><ele>484.18</ele><time>2025-12-06T23:39:34.000Z</time></trkpt>
        <trkpt lat="28.7490167" lon="104.6637767"><ele>486.17</ele><time>2025-12-06T23:43:18.000Z</time></trkpt>
        <trkpt lat="28.748945" lon="104.6637"><ele>485.62</ele><time>2025-12-06T23:43:32.000Z</time></trkpt>
        <trkpt lat="28.748855" lon="104.6636783"><ele>485.48</ele><time>2025-12-06T23:43:44.000Z</time></trkpt>
        <trkpt lat="28.7487669" lon="104.6636523"><ele>486.14</ele><time>2025-12-06T23:44:00.000Z</time></trkpt>
        <trkpt lat="28.7486693" lon="104.6636188"><ele>487.88</ele><time>2025-12-06T23:44:22.000Z</time></trkpt>
        <trkpt lat="28.7485796" lon="104.6635821"><ele>490.26</ele><time>2025-12-06T23:44:38.000Z</time></trkpt>
        <trkpt lat="28.7484874" lon="104.663559"><ele>493.33</ele><time>2025-12-06T23:44:54.000Z</time></trkpt>
        <trkpt lat="28.7483903" lon="104.6635448"><ele>496.93</ele><time>2025-12-06T23:45:14.000Z</time></trkpt>
        <trkpt lat="28.7482966" lon="104.6635481"><ele>499.97</ele><time>2025-12-06T23:45:34.000Z</time></trkpt>
        <trkpt lat="28.7481744" lon="104.663562"><ele>502.26</ele><time>2025-12-06T23:46:04.000Z</time></trkpt>
        <trkpt lat="28.7480718" lon="104.663552"><ele>506.58</ele><time>2025-12-06T23:46:26.000Z</time></trkpt>
        <trkpt lat="28.7479692" lon="104.6635257"><ele>511.62</ele><time>2025-12-06T23:46:44.000Z</time></trkpt>
        <trkpt lat="28.7478701" lon="104.6635053"><ele>514.06</ele><time>2025-12-06T23:47:02.000Z</time></trkpt>
        <trkpt lat="28.7477859" lon="104.6634632"><ele>515.76</ele><time>2025-12-06T23:47:18.000Z</time></trkpt>
        <trkpt lat="28.7476994" lon="104.6634173"><ele>517.07</ele><time>2025-12-06T23:47:36.000Z</time></trkpt>
        <trkpt lat="28.747611" lon="104.6633939"><ele>521.12</ele><time>2025-12-06T23:47:56.000Z</time></trkpt>
        <trkpt lat="28.7475204" lon="104.6634097"><ele>525.29</ele><time>2025-12-06T23:48:12.000Z</time></trkpt>
        <trkpt lat="28.7474026" lon="104.663409"><ele>528.3</ele><time>2025-12-06T23:48:52.000Z</time></trkpt>
        <trkpt lat="28.7472924" lon="104.6633922"><ele>530.15</ele><time>2025-12-06T23:49:12.000Z</time></trkpt>
        <trkpt lat="28.7471903" lon="104.6633779"><ele>533.83</ele><time>2025-12-06T23:49:24.000Z</time></trkpt>
        <trkpt lat="28.7471065" lon="104.6633301"><ele>537.17</ele><time>2025-12-06T23:49:46.000Z</time></trkpt>
        <trkpt lat="28.747033" lon="104.6632615"><ele>538.13</ele><time>2025-12-06T23:50:00.000Z</time></trkpt>
        <trkpt lat="28.7469671" lon="104.6631809"><ele>538.81</ele><time>2025-12-06T23:50:20.000Z</time></trkpt>
        <trkpt lat="28.7469041" lon="104.6630944"><ele>539.79</ele><time>2025-12-06T23:50:30.000Z</time></trkpt>
        <trkpt lat="28.7468248" lon="104.6630414"><ele>540.96</ele><time>2025-12-06T23:51:08.000Z</time></trkpt>
        <trkpt lat="28.7467889" lon="104.6629543"><ele>544.37</ele><time>2025-12-06T23:51:22.000Z</time></trkpt>
        <trkpt lat="28.7467545" lon="104.6628498"><ele>545.33</ele><time>2025-12-06T23:51:32.000Z</time></trkpt>
        <trkpt lat="28.7466983" lon="104.662754"><ele>545.96</ele><time>2025-12-06T23:51:42.000Z</time></trkpt>
        <trkpt lat="28.7466193" lon="104.662673"><ele>545.63</ele><time>2025-12-06T23:51:54.000Z</time></trkpt>
        <trkpt lat="28.7465601" lon="104.6625853"><ele>545.49</ele><time>2025-12-06T23:52:04.000Z</time></trkpt>
        <trkpt lat="28.7464883" lon="104.6625058"><ele>546.23</ele><time>2025-12-06T23:52:14.000Z</time></trkpt>
        <trkpt lat="28.7464217" lon="104.6624218"><ele>546.17</ele><time>2025-12-06T23:52:24.000Z</time></trkpt>
        <trkpt lat="28.7463826" lon="104.6623245"><ele>545.71</ele><time>2025-12-06T23:52:40.000Z</time></trkpt>
        <trkpt lat="28.7463485" lon="104.6622223"><ele>545.19</ele><time>2025-12-06T23:52:52.000Z</time></trkpt>
        <trkpt lat="28.7462922" lon="104.6621254"><ele>544.42</ele><time>2025-12-06T23:53:02.000Z</time></trkpt>
        <trkpt lat="28.7462243" lon="104.6620498"><ele>542.99</ele><time>2025-12-06T23:53:12.000Z</time></trkpt>
        <trkpt lat="28.7461489" lon="104.6619721"><ele>541.66</ele><time>2025-12-06T23:53:22.000Z</time></trkpt>
        <trkpt lat="28.7460844" lon="104.6618949"><ele>541.16</ele><time>2025-12-06T23:53:30.000Z</time></trkpt>
        <trkpt lat="28.7460097" lon="104.66182"><ele>541.09</ele><time>2025-12-06T23:53:40.000Z</time></trkpt>
        <trkpt lat="28.745955" lon="104.6617757"><ele>540.54</ele><time>2025-12-06T23:53:52.000Z</time></trkpt>
        <trkpt lat="28.7458718" lon="104.6617297"><ele>539.92</ele><time>2025-12-06T23:54:10.000Z</time></trkpt>
        <trkpt lat="28.7457823" lon="104.6617014"><ele>539.82</ele><time>2025-12-06T23:54:40.000Z</time></trkpt>
        <trkpt lat="28.7456917" lon="104.661661"><ele>539.47</ele><time>2025-12-06T23:54:52.000Z</time></trkpt>
        <trkpt lat="28.7455904" lon="104.6616224"><ele>540.47</ele><time>2025-12-06T23:55:02.000Z</time></trkpt>
        <trkpt lat="28.7454744" lon="104.6615956"><ele>541.17</ele><time>2025-12-06T23:55:14.000Z</time></trkpt>
        <trkpt lat="28.7453764" lon="104.661568"><ele>542.78</ele><time>2025-12-06T23:55:26.000Z</time></trkpt>
        <trkpt lat="28.7452864" lon="104.6615443"><ele>543.69</ele><time>2025-12-06T23:55:36.000Z</time></trkpt>
        <trkpt lat="28.7451889" lon="104.6615254"><ele>542.32</ele><time>2025-12-06T23:55:44.000Z</time></trkpt>
        <trkpt lat="28.7450868" lon="104.6615218"><ele>540.2</ele><time>2025-12-06T23:55:56.000Z</time></trkpt>
        <trkpt lat="28.7449894" lon="104.6614956"><ele>537.62</ele><time>2025-12-06T23:56:08.000Z</time></trkpt>
        <trkpt lat="28.7449028" lon="104.6614514"><ele>535.42</ele><time>2025-12-06T23:56:18.000Z</time></trkpt>
        <trkpt lat="28.7448413" lon="104.6613712"><ele>533.65</ele><time>2025-12-06T23:56:28.000Z</time></trkpt>
        <trkpt lat="28.7447658" lon="104.661308"><ele>531.65</ele><time>2025-12-06T23:56:38.000Z</time></trkpt>
        <trkpt lat="28.7447248" lon="104.6612148"><ele>529.86</ele><time>2025-12-06T23:56:56.000Z</time></trkpt>
        <trkpt lat="28.744685" lon="104.6611075"><ele>527.04</ele><time>2025-12-06T23:57:10.000Z</time></trkpt>
        <trkpt lat="28.7446217" lon="104.6609233"><ele>524.57</ele><time>2025-12-06T23:58:38.000Z</time></trkpt>
        <trkpt lat="28.744525" lon="104.660795"><ele>525.66</ele><time>2025-12-06T23:59:32.000Z</time></trkpt>
        <trkpt lat="28.744434" lon="104.6607724"><ele>530.71</ele><time>2025-12-07T00:00:02.000Z</time></trkpt>
        <trkpt lat="28.7443452" lon="104.6607184"><ele>530.96</ele><time>2025-12-07T00:00:20.000Z</time></trkpt>
        <trkpt lat="28.7442798" lon="104.6606401"><ele>531.45</ele><time>2025-12-07T00:00:28.000Z</time></trkpt>
        <trkpt lat="28.7442501" lon="104.660535"><ele>531.73</ele><time>2025-12-07T00:00:38.000Z</time></trkpt>
        <trkpt lat="28.7441672" lon="104.660501"><ele>530.69</ele><time>2025-12-07T00:00:48.000Z</time></trkpt>
        <trkpt lat="28.7440846" lon="104.6604736"><ele>529.75</ele><time>2025-12-07T00:01:06.000Z</time></trkpt>
        <trkpt lat="28.7441138" lon="104.6604207"><ele>529.25</ele><time>2025-12-07T00:01:46.000Z</time></trkpt>
        <trkpt lat="28.7441871" lon="104.6604543"><ele>528.89</ele><time>2025-12-07T00:02:08.000Z</time></trkpt>
        <trkpt lat="28.7442845" lon="104.6604673"><ele>527.69</ele><time>2025-12-07T00:02:34.000Z</time></trkpt>
        <trkpt lat="28.7443778" lon="104.6605121"><ele>525.5</ele><time>2025-12-07T00:02:58.000Z</time></trkpt>
        <trkpt lat="28.744478" lon="104.6604883"><ele>523.05</ele><time>2025-12-07T00:03:44.000Z</time></trkpt>
        <trkpt lat="28.7445798" lon="104.6605172"><ele>518.51</ele><time>2025-12-07T00:04:10.000Z</time></trkpt>
        <trkpt lat="28.7446295" lon="104.6604538"><ele>514.76</ele><time>2025-12-07T00:04:26.000Z</time></trkpt>
        <trkpt lat="28.7446605" lon="104.6603477"><ele>512.11</ele><time>2025-12-07T00:04:48.000Z</time></trkpt>
        <trkpt lat="28.7446696" lon="104.6602314"><ele>509.87</ele><time>2025-12-07T00:05:06.000Z</time></trkpt>
        <trkpt lat="28.7446655" lon="104.6601185"><ele>507.43</ele><time>2025-12-07T00:05:36.000Z</time></trkpt>
        <trkpt lat="28.7447128" lon="104.6601375"><ele>503.29</ele><time>2025-12-07T00:06:24.000Z</time></trkpt>
        <trkpt lat="28.744737" lon="104.6602362"><ele>496.58</ele><time>2025-12-07T00:06:40.000Z</time></trkpt>
        <trkpt lat="28.7447624" lon="104.6603512"><ele>490.78</ele><time>2025-12-07T00:06:58.000Z</time></trkpt>
        <trkpt lat="28.744826" lon="104.6604331"><ele>487.82</ele><time>2025-12-07T00:07:08.000Z</time></trkpt>
        <trkpt lat="28.7448775" lon="104.6605305"><ele>487.6</ele><time>2025-12-07T00:07:40.000Z</time></trkpt>
        <trkpt lat="28.7448549" lon="104.6604798"><ele>488.89</ele><time>2025-12-07T00:07:56.000Z</time></trkpt>
        <trkpt lat="28.7448233" lon="104.6605417"><ele>488.76</ele><time>2025-12-07T00:09:08.000Z</time></trkpt>
        <trkpt lat="28.7449017" lon="104.66047"><ele>486.41</ele><time>2025-12-07T00:12:44.000Z</time></trkpt>
        <trkpt lat="28.7448717" lon="104.66037"><ele>486.92</ele><time>2025-12-07T00:12:56.000Z</time></trkpt>
        <trkpt lat="28.7448713" lon="104.6602559"><ele>485.92</ele><time>2025-12-07T00:13:14.000Z</time></trkpt>
        <trkpt lat="28.7449405" lon="104.6602654"><ele>483.98</ele><time>2025-12-07T00:14:04.000Z</time></trkpt>
        <trkpt lat="28.7450177" lon="104.6603372"><ele>480.55</ele><time>2025-12-07T00:14:16.000Z</time></trkpt>
        <trkpt lat="28.7450867" lon="104.6604356"><ele>476.91</ele><time>2025-12-07T00:14:28.000Z</time></trkpt>
        <trkpt lat="28.74515" lon="104.6605348"><ele>472.82</ele><time>2025-12-07T00:14:36.000Z</time></trkpt>
        <trkpt lat="28.7452402" lon="104.6605943"><ele>470.27</ele><time>2025-12-07T00:14:46.000Z</time></trkpt>
        <trkpt lat="28.7453325" lon="104.6605863"><ele>468.95</ele><time>2025-12-07T00:15:00.000Z</time></trkpt>
        <trkpt lat="28.7454339" lon="104.6605468"><ele>469.75</ele><time>2025-12-07T00:15:10.000Z</time></trkpt>
        <trkpt lat="28.7455276" lon="104.6604924"><ele>471.53</ele><time>2025-12-07T00:15:20.000Z</time></trkpt>
        <trkpt lat="28.745605" lon="104.6604226"><ele>473.24</ele><time>2025-12-07T00:15:36.000Z</time></trkpt>
        <trkpt lat="28.7456814" lon="104.6603552"><ele>475.5</ele><time>2025-12-07T00:15:52.000Z</time></trkpt>
        <trkpt lat="28.7457631" lon="104.6603097"><ele>475.07</ele><time>2025-12-07T00:16:08.000Z</time></trkpt>
        <trkpt lat="28.7458487" lon="104.6602684"><ele>474.44</ele><time>2025-12-07T00:16:22.000Z</time></trkpt>
        <trkpt lat="28.7459418" lon="104.6602843"><ele>472.92</ele><time>2025-12-07T00:16:32.000Z</time></trkpt>
        <trkpt lat="28.7460312" lon="104.6603431"><ele>470.93</ele><time>2025-12-07T00:16:44.000Z</time></trkpt>
        <trkpt lat="28.7461337" lon="104.6603479"><ele>470.23</ele><time>2025-12-07T00:16:58.000Z</time></trkpt>
        <trkpt lat="28.746087" lon="104.6603437"><ele>471.55</ele><time>2025-12-07T00:17:24.000Z</time></trkpt>
        <trkpt lat="28.7459849" lon="104.6603007"><ele>477.16</ele><time>2025-12-07T00:17:36.000Z</time></trkpt>
        <trkpt lat="28.7458817" lon="104.6602444"><ele>480.36</ele><time>2025-12-07T00:17:50.000Z</time></trkpt>
        <trkpt lat="28.7458703" lon="104.6601408"><ele>481.11</ele><time>2025-12-07T00:18:08.000Z</time></trkpt>
        <trkpt lat="28.7458438" lon="104.6600332"><ele>482.53</ele><time>2025-12-07T00:18:22.000Z</time></trkpt>
        <trkpt lat="28.7457699" lon="104.6599567"><ele>482.56</ele><time>2025-12-07T00:18:44.000Z</time></trkpt>
        <trkpt lat="28.7457957" lon="104.6598762"><ele>480.3</ele><time>2025-12-07T00:18:52.000Z</time></trkpt>
        <trkpt lat="28.7458501" lon="104.65978"><ele>476.99</ele><time>2025-12-07T00:19:04.000Z</time></trkpt>
        <trkpt lat="28.7459369" lon="104.6597155"><ele>472.91</ele><time>2025-12-07T00:19:46.000Z</time></trkpt>
        <trkpt lat="28.7460368" lon="104.659706"><ele>470.92</ele><time>2025-12-07T00:20:06.000Z</time></trkpt>
        <trkpt lat="28.7461351" lon="104.659719"><ele>467.3</ele><time>2025-12-07T00:20:16.000Z</time></trkpt>
        <trkpt lat="28.7462313" lon="104.6597754"><ele>464.76</ele><time>2025-12-07T00:20:26.000Z</time></trkpt>
        <trkpt lat="28.7462953" lon="104.6598632"><ele>463.14</ele><time>2025-12-07T00:20:34.000Z</time></trkpt>
        <trkpt lat="28.7463282" lon="104.6599722"><ele>461.83</ele><time>2025-12-07T00:20:44.000Z</time></trkpt>
        <trkpt lat="28.7463612" lon="104.6600826"><ele>461.35</ele><time>2025-12-07T00:20:54.000Z</time></trkpt>
        <trkpt lat="28.746413" lon="104.6601701"><ele>461.46</ele><time>2025-12-07T00:21:08.000Z</time></trkpt>
        <trkpt lat="28.7464754" lon="104.6602514"><ele>461.47</ele><time>2025-12-07T00:21:34.000Z</time></trkpt>
        <trkpt lat="28.7465289" lon="104.6602805"><ele>462.04</ele><time>2025-12-07T00:21:48.000Z</time></trkpt>
        <trkpt lat="28.7466309" lon="104.6602774"><ele>464.61</ele><time>2025-12-07T00:21:58.000Z</time></trkpt>
        <trkpt lat="28.7467319" lon="104.6603357"><ele>465.64</ele><time>2025-12-07T00:22:08.000Z</time></trkpt>
        <trkpt lat="28.7467774" lon="104.6604286"><ele>465.66</ele><time>2025-12-07T00:22:18.000Z</time></trkpt>
        <trkpt lat="28.746795" lon="104.6605401"><ele>465.29</ele><time>2025-12-07T00:22:30.000Z</time></trkpt>
        <trkpt lat="28.7468286" lon="104.6606545"><ele>463.4</ele><time>2025-12-07T00:22:48.000Z</time></trkpt>
        <trkpt lat="28.7468457" lon="104.6607649"><ele>464.48</ele><time>2025-12-07T00:23:02.000Z</time></trkpt>
        <trkpt lat="28.74692" lon="104.6608367"><ele>462.59</ele><time>2025-12-07T00:26:18.000Z</time></trkpt>
        <trkpt lat="28.7470117" lon="104.6606983"><ele>460.49</ele><time>2025-12-07T00:30:32.000Z</time></trkpt>
        <trkpt lat="28.74705" lon="104.6607967"><ele>463.07</ele><time>2025-12-07T00:30:48.000Z</time></trkpt>
        <trkpt lat="28.7470615" lon="104.6607004"><ele>460.98</ele><time>2025-12-07T00:31:24.000Z</time></trkpt>
        <trkpt lat="28.7471146" lon="104.660733"><ele>461.68</ele><time>2025-12-07T00:31:58.000Z</time></trkpt>
        <trkpt lat="28.7471706" lon="104.6608213"><ele>459.45</ele><time>2025-12-07T00:32:22.000Z</time></trkpt>
        <trkpt lat="28.7472467" lon="104.6607995"><ele>459.04</ele><time>2025-12-07T00:32:48.000Z</time></trkpt>
        <trkpt lat="28.7472604" lon="104.6607084"><ele>455.02</ele><time>2025-12-07T00:33:04.000Z</time></trkpt>
        <trkpt lat="28.7472571" lon="104.6605895"><ele>453.98</ele><time>2025-12-07T00:33:44.000Z</time></trkpt>
        <trkpt lat="28.7472364" lon="104.66047"><ele>452.66</ele><time>2025-12-07T00:33:58.000Z</time></trkpt>
        <trkpt lat="28.747288" lon="104.6604024"><ele>450.22</ele><time>2025-12-07T00:34:10.000Z</time></trkpt>
        <trkpt lat="28.7473582" lon="104.6603288"><ele>447.29</ele><time>2025-12-07T00:34:24.000Z</time></trkpt>
        <trkpt lat="28.7474423" lon="104.6602676"><ele>444.84</ele><time>2025-12-07T00:34:44.000Z</time></trkpt>
        <trkpt lat="28.7475003" lon="104.6603246"><ele>442.89</ele><time>2025-12-07T00:34:58.000Z</time></trkpt>
        <trkpt lat="28.7475741" lon="104.6603962"><ele>441.82</ele><time>2025-12-07T00:35:12.000Z</time></trkpt>
        <trkpt lat="28.7476566" lon="104.6604636"><ele>441.85</ele><time>2025-12-07T00:35:20.000Z</time></trkpt>
        <trkpt lat="28.7476964" lon="104.6605676"><ele>442</ele><time>2025-12-07T00:35:56.000Z</time></trkpt>
        <trkpt lat="28.7476935" lon="104.6606866"><ele>443.12</ele><time>2025-12-07T00:36:56.000Z</time></trkpt>
        <trkpt lat="28.7476456" lon="104.6607966"><ele>444.53</ele><time>2025-12-07T00:37:14.000Z</time></trkpt>
        <trkpt lat="28.7475896" lon="104.6609034"><ele>446.58</ele><time>2025-12-07T00:37:28.000Z</time></trkpt>
        <trkpt lat="28.7475361" lon="104.6610019"><ele>448.01</ele><time>2025-12-07T00:37:44.000Z</time></trkpt>
        <trkpt lat="28.7474913" lon="104.6610996"><ele>449.21</ele><time>2025-12-07T00:38:00.000Z</time></trkpt>
        <trkpt lat="28.7474471" lon="104.6611936"><ele>449.89</ele><time>2025-12-07T00:38:28.000Z</time></trkpt>
        <trkpt lat="28.7474535" lon="104.6613002"><ele>448.39</ele><time>2025-12-07T00:38:42.000Z</time></trkpt>
        <trkpt lat="28.7474922" lon="104.6614042"><ele>447.02</ele><time>2025-12-07T00:38:54.000Z</time></trkpt>
        <trkpt lat="28.7475388" lon="104.6615055"><ele>445.25</ele><time>2025-12-07T00:39:06.000Z</time></trkpt>
        <trkpt lat="28.7475862" lon="104.6615994"><ele>444.19</ele><time>2025-12-07T00:39:20.000Z</time></trkpt>
        <trkpt lat="28.7476456" lon="104.6616806"><ele>445.32</ele><time>2025-12-07T00:39:30.000Z</time></trkpt>
        <trkpt lat="28.7477295" lon="104.6617301"><ele>446.51</ele><time>2025-12-07T00:39:40.000Z</time></trkpt>
        <trkpt lat="28.747831" lon="104.6617552"><ele>447.5</ele><time>2025-12-07T00:39:52.000Z</time></trkpt>
        <trkpt lat="28.7479282" lon="104.6617661"><ele>449.35</ele><time>2025-12-07T00:40:04.000Z</time></trkpt>
        <trkpt lat="28.7480243" lon="104.6617944"><ele>451.18</ele><time>2025-12-07T00:40:18.000Z</time></trkpt>
        <trkpt lat="28.7481041" lon="104.6618536"><ele>451.83</ele><time>2025-12-07T00:40:32.000Z</time></trkpt>
        <trkpt lat="28.7481851" lon="104.6619194"><ele>450.18</ele><time>2025-12-07T00:40:44.000Z</time></trkpt>
        <trkpt lat="28.748271" lon="104.6619796"><ele>449.42</ele><time>2025-12-07T00:40:56.000Z</time></trkpt>
        <trkpt lat="28.7483565" lon="104.6620229"><ele>448.89</ele><time>2025-12-07T00:41:08.000Z</time></trkpt>
        <trkpt lat="28.7484467" lon="104.6620683"><ele>448.42</ele><time>2025-12-07T00:41:26.000Z</time></trkpt>
        <trkpt lat="28.7485373" lon="104.6621028"><ele>449.02</ele><time>2025-12-07T00:41:36.000Z</time></trkpt>
        <trkpt lat="28.7486341" lon="104.6620948"><ele>449.52</ele><time>2025-12-07T00:41:46.000Z</time></trkpt>
        <trkpt lat="28.7487342" lon="104.6620444"><ele>450.29</ele><time>2025-12-07T00:41:58.000Z</time></trkpt>
        <trkpt lat="28.7488351" lon="104.6620113"><ele>450.98</ele><time>2025-12-07T00:42:08.000Z</time></trkpt>
        <trkpt lat="28.7489296" lon="104.6620222"><ele>451.63</ele><time>2025-12-07T00:42:16.000Z</time></trkpt>
        <trkpt lat="28.7489927" lon="104.6620989"><ele>450.89</ele><time>2025-12-07T00:42:24.000Z</time></trkpt>
        <trkpt lat="28.7490609" lon="104.6621754"><ele>450.03</ele><time>2025-12-07T00:42:36.000Z</time></trkpt>
        <trkpt lat="28.7491214" lon="104.6622659"><ele>451.44</ele><time>2025-12-07T00:42:48.000Z</time></trkpt>
        <trkpt lat="28.7492024" lon="104.6623454"><ele>451.81</ele><time>2025-12-07T00:43:00.000Z</time></trkpt>
        <trkpt lat="28.7492942" lon="104.6623737"><ele>451.12</ele><time>2025-12-07T00:43:14.000Z</time></trkpt>
        <trkpt lat="28.7493967" lon="104.6623828"><ele>452.06</ele><time>2025-12-07T00:43:54.000Z</time></trkpt>
        <trkpt lat="28.7494984" lon="104.6624025"><ele>453.97</ele><time>2025-12-07T00:44:14.000Z</time></trkpt>
        <trkpt lat="28.7495875" lon="104.6624423"><ele>456.26</ele><time>2025-12-07T00:44:24.000Z</time></trkpt>
        <trkpt lat="28.7496651" lon="104.6625"><ele>455.16</ele><time>2025-12-07T00:44:32.000Z</time></trkpt>
        <trkpt lat="28.7496926" lon="104.6625311"><ele>454.14</ele><time>2025-12-07T00:44:42.000Z</time></trkpt>
        <trkpt lat="28.7496926" lon="104.6625311"><ele>454.14</ele><time>2025-12-07T00:46:27.000Z</time></trkpt>
      </trkseg>
      <trkseg>
        <trkpt lat="28.74965" lon="104.6624283"><ele>452.62</ele><time>2025-12-07T00:56:06.000Z</time></trkpt>
        <trkpt lat="28.74965" lon="104.6624283"><ele>452.62</ele><time>2025-12-07T01:00:16.000Z</time></trkpt>
        <trkpt lat="28.7495833" lon="104.6623567"><ele>450.37</ele><time>2025-12-07T01:00:44.000Z</time></trkpt>
        <trkpt lat="28.7496055" lon="104.6622624"><ele>445.48</ele><time>2025-12-07T01:01:16.000Z</time></trkpt>
        <trkpt lat="28.7496421" lon="104.6621616"><ele>440.67</ele><time>2025-12-07T01:01:42.000Z</time></trkpt>
        <trkpt lat="28.7497" lon="104.6620737"><ele>437.84</ele><time>2025-12-07T01:02:02.000Z</time></trkpt>
        <trkpt lat="28.7497433" lon="104.6619767"><ele>435.03</ele><time>2025-12-07T01:03:24.000Z</time></trkpt>
        <trkpt lat="28.74982" lon="104.66184"><ele>433.12</ele><time>2025-12-07T01:04:12.000Z</time></trkpt>
        <trkpt lat="28.7499122" lon="104.6618514"><ele>432.04</ele><time>2025-12-07T01:04:40.000Z</time></trkpt>
        <trkpt lat="28.7499814" lon="104.6619302"><ele>428.92</ele><time>2025-12-07T01:04:52.000Z</time></trkpt>
        <trkpt lat="28.7500309" lon="104.6620434"><ele>426.72</ele><time>2025-12-07T01:05:02.000Z</time></trkpt>
        <trkpt lat="28.7500789" lon="104.6621612"><ele>424.86</ele><time>2025-12-07T01:05:12.000Z</time></trkpt>
        <trkpt lat="28.7501202" lon="104.6622803"><ele>423.63</ele><time>2025-12-07T01:05:20.000Z</time></trkpt>
        <trkpt lat="28.7501336" lon="104.6623991"><ele>423.45</ele><time>2025-12-07T01:05:28.000Z</time></trkpt>
        <trkpt lat="28.7501641" lon="104.6625009"><ele>423.25</ele><time>2025-12-07T01:05:38.000Z</time></trkpt>
        <trkpt lat="28.7502027" lon="104.6625553"><ele>422.33</ele><time>2025-12-07T01:05:50.000Z</time></trkpt>
        <trkpt lat="28.7502331" lon="104.6626568"><ele>421.11</ele><time>2025-12-07T01:06:32.000Z</time></trkpt>
        <trkpt lat="28.7502753" lon="104.6627632"><ele>421.49</ele><time>2025-12-07T01:06:40.000Z</time></trkpt>
        <trkpt lat="28.7503507" lon="104.6628353"><ele>422.49</ele><time>2025-12-07T01:06:48.000Z</time></trkpt>
        <trkpt lat="28.7504428" lon="104.662879"><ele>423.83</ele><time>2025-12-07T01:06:54.000Z</time></trkpt>
        <trkpt lat="28.7505439" lon="104.6628949"><ele>424.98</ele><time>2025-12-07T01:07:04.000Z</time></trkpt>
        <trkpt lat="28.7506512" lon="104.6629319"><ele>425.93</ele><time>2025-12-07T01:07:14.000Z</time></trkpt>
        <trkpt lat="28.7507455" lon="104.6629917"><ele>426.74</ele><time>2025-12-07T01:07:22.000Z</time></trkpt>
        <trkpt lat="28.7508139" lon="104.6630828"><ele>427.32</ele><time>2025-12-07T01:07:36.000Z</time></trkpt>
        <trkpt lat="28.7508465" lon="104.6631905"><ele>426.97</ele><time>2025-12-07T01:07:48.000Z</time></trkpt>
        <trkpt lat="28.7508764" lon="104.6633095"><ele>427.5</ele><time>2025-12-07T01:07:56.000Z</time></trkpt>
        <trkpt lat="28.750928" lon="104.6634204"><ele>427.41</ele><time>2025-12-07T01:08:04.000Z</time></trkpt>
        <trkpt lat="28.7510016" lon="104.6634966"><ele>427.45</ele><time>2025-12-07T01:08:12.000Z</time></trkpt>
        <trkpt lat="28.7511055" lon="104.6635233"><ele>426.53</ele><time>2025-12-07T01:08:22.000Z</time></trkpt>
        <trkpt lat="28.7512191" lon="104.6635436"><ele>425.27</ele><time>2025-12-07T01:08:32.000Z</time></trkpt>
        <trkpt lat="28.7513226" lon="104.6635802"><ele>423.9</ele><time>2025-12-07T01:08:42.000Z</time></trkpt>
        <trkpt lat="28.7514143" lon="104.6636187"><ele>422.57</ele><time>2025-12-07T01:08:50.000Z</time></trkpt>
        <trkpt lat="28.7514988" lon="104.6636594"><ele>421.59</ele><time>2025-12-07T01:09:00.000Z</time></trkpt>
        <trkpt lat="28.7515735" lon="104.6637249"><ele>421.47</ele><time>2025-12-07T01:09:10.000Z</time></trkpt>
        <trkpt lat="28.7516542" lon="104.6637905"><ele>420.75</ele><time>2025-12-07T01:09:20.000Z</time></trkpt>
        <trkpt lat="28.7517278" lon="104.6638772"><ele>420.17</ele><time>2025-12-07T01:09:30.000Z</time></trkpt>
        <trkpt lat="28.7517939" lon="104.663961"><ele>419.84</ele><time>2025-12-07T01:09:38.000Z</time></trkpt>
        <trkpt lat="28.7518741" lon="104.6640396"><ele>418.96</ele><time>2025-12-07T01:09:50.000Z</time></trkpt>
        <trkpt lat="28.7519513" lon="104.6641106"><ele>417.9</ele><time>2025-12-07T01:09:58.000Z</time></trkpt>
        <trkpt lat="28.7520282" lon="104.6641726"><ele>415.75</ele><time>2025-12-07T01:10:06.000Z</time></trkpt>
        <trkpt lat="28.7520962" lon="104.6642629"><ele>413.19</ele><time>2025-12-07T01:10:16.000Z</time></trkpt>
        <trkpt lat="28.7521434" lon="104.664363"><ele>411.86</ele><time>2025-12-07T01:10:26.000Z</time></trkpt>
        <trkpt lat="28.7521998" lon="104.664463"><ele>411.02</ele><time>2025-12-07T01:10:34.000Z</time></trkpt>
        <trkpt lat="28.7522784" lon="104.6645367"><ele>410.88</ele><time>2025-12-07T01:10:42.000Z</time></trkpt>
        <trkpt lat="28.7523691" lon="104.6645615"><ele>410.37</ele><time>2025-12-07T01:10:50.000Z</time></trkpt>
        <trkpt lat="28.7524582" lon="104.664612"><ele>409.52</ele><time>2025-12-07T01:10:58.000Z</time></trkpt>
        <trkpt lat="28.7525542" lon="104.6646401"><ele>409.69</ele><time>2025-12-07T01:11:06.000Z</time></trkpt>
        <trkpt lat="28.7526534" lon="104.6646842"><ele>408.23</ele><time>2025-12-07T01:11:14.000Z</time></trkpt>
        <trkpt lat="28.7527418" lon="104.6647255"><ele>407.53</ele><time>2025-12-07T01:11:28.000Z</time></trkpt>
        <trkpt lat="28.7528346" lon="104.6647544"><ele>405.32</ele><time>2025-12-07T01:11:46.000Z</time></trkpt>
        <trkpt lat="28.7529179" lon="104.6648214"><ele>400.93</ele><time>2025-12-07T01:11:56.000Z</time></trkpt>
        <trkpt lat="28.7530202" lon="104.664863"><ele>396.83</ele><time>2025-12-07T01:12:10.000Z</time></trkpt>
        <trkpt lat="28.753115" lon="104.6649273"><ele>392.64</ele><time>2025-12-07T01:12:20.000Z</time></trkpt>
        <trkpt lat="28.7532024" lon="104.6649743"><ele>390.73</ele><time>2025-12-07T01:12:30.000Z</time></trkpt>
        <trkpt lat="28.7532922" lon="104.6649687"><ele>390.29</ele><time>2025-12-07T01:12:48.000Z</time></trkpt>
        <trkpt lat="28.7533794" lon="104.6649144"><ele>390.08</ele><time>2025-12-07T01:13:00.000Z</time></trkpt>
        <trkpt lat="28.7534258" lon="104.6648141"><ele>388.41</ele><time>2025-12-07T01:13:10.000Z</time></trkpt>
        <trkpt lat="28.7534586" lon="104.6647664"><ele>387.16</ele><time>2025-12-07T01:13:20.000Z</time></trkpt>
        <trkpt lat="28.7535202" lon="104.6647089"><ele>386.14</ele><time>2025-12-07T01:13:38.000Z</time></trkpt>
        <trkpt lat="28.7535754" lon="104.6646212"><ele>384.58</ele><time>2025-12-07T01:13:56.000Z</time></trkpt>
        <trkpt lat="28.7536654" lon="104.6646079"><ele>383.25</ele><time>2025-12-07T01:14:20.000Z</time></trkpt>
        <trkpt lat="28.7537569" lon="104.6646651"><ele>380.61</ele><time>2025-12-07T01:14:30.000Z</time></trkpt>
        <trkpt lat="28.7538307" lon="104.6647474"><ele>378.8</ele><time>2025-12-07T01:14:42.000Z</time></trkpt>
        <trkpt lat="28.7538758" lon="104.6648546"><ele>377.03</ele><time>2025-12-07T01:14:54.000Z</time></trkpt>
        <trkpt lat="28.7539533" lon="104.6648816"><ele>375.26</ele><time>2025-12-07T01:15:04.000Z</time></trkpt>
        <trkpt lat="28.7540382" lon="104.664858"><ele>374.07</ele><time>2025-12-07T01:15:16.000Z</time></trkpt>
        <trkpt lat="28.75413" lon="104.6648384"><ele>372.1</ele><time>2025-12-07T01:15:26.000Z</time></trkpt>
        <trkpt lat="28.7542222" lon="104.6648306"><ele>369.52</ele><time>2025-12-07T01:15:40.000Z</time></trkpt>
        <trkpt lat="28.7543125" lon="104.664853"><ele>366.97</ele><time>2025-12-07T01:16:00.000Z</time></trkpt>
        <trkpt lat="28.7544041" lon="104.6648678"><ele>364.75</ele><time>2025-12-07T01:16:18.000Z</time></trkpt>
        <trkpt lat="28.7544911" lon="104.6648247"><ele>363.18</ele><time>2025-12-07T01:16:42.000Z</time></trkpt>
        <trkpt lat="28.7545737" lon="104.6647613"><ele>360.87</ele><time>2025-12-07T01:16:58.000Z</time></trkpt>
        <trkpt lat="28.7546636" lon="104.664716"><ele>358.08</ele><time>2025-12-07T01:17:12.000Z</time></trkpt>
        <trkpt lat="28.7547566" lon="104.6647113"><ele>355.6</ele><time>2025-12-07T01:17:24.000Z</time></trkpt>
        <trkpt lat="28.7548367" lon="104.6647657"><ele>353.4</ele><time>2025-12-07T01:17:36.000Z</time></trkpt>
        <trkpt lat="28.7549406" lon="104.664732"><ele>351.04</ele><time>2025-12-07T01:18:10.000Z</time></trkpt>
        <trkpt lat="28.7549798" lon="104.6646369"><ele>346.37</ele><time>2025-12-07T01:18:30.000Z</time></trkpt>
        <trkpt lat="28.7550145" lon="104.6645343"><ele>341.83</ele><time>2025-12-07T01:18:48.000Z</time></trkpt>
        <trkpt lat="28.7550918" lon="104.6644938"><ele>338.63</ele><time>2025-12-07T01:19:04.000Z</time></trkpt>
        <trkpt lat="28.755179" lon="104.664524"><ele>334.66</ele><time>2025-12-07T01:19:16.000Z</time></trkpt>
        <trkpt lat="28.7552748" lon="104.6645681"><ele>331.24</ele><time>2025-12-07T01:19:28.000Z</time></trkpt>
        <trkpt lat="28.7553712" lon="104.6646075"><ele>328.08</ele><time>2025-12-07T01:19:48.000Z</time></trkpt>
        <trkpt lat="28.7554666" lon="104.6646493"><ele>323.4</ele><time>2025-12-07T01:20:02.000Z</time></trkpt>
        <trkpt lat="28.7555648" lon="104.664648"><ele>319.57</ele><time>2025-12-07T01:20:16.000Z</time></trkpt>
        <trkpt lat="28.7556525" lon="104.6646073"><ele>316.62</ele><time>2025-12-07T01:20:36.000Z</time></trkpt>
        <trkpt lat="28.7556834" lon="104.6646782"><ele>312.14</ele><time>2025-12-07T01:20:48.000Z</time></trkpt>
        <trkpt lat="28.7556477" lon="104.6647754"><ele>308.16</ele><time>2025-12-07T01:20:56.000Z</time></trkpt>
        <trkpt lat="28.755571" lon="104.6648565"><ele>304.91</ele><time>2025-12-07T01:21:06.000Z</time></trkpt>
        <trkpt lat="28.7554859" lon="104.6649241"><ele>301.94</ele><time>2025-12-07T01:21:14.000Z</time></trkpt>
        <trkpt lat="28.7554179" lon="104.6650108"><ele>299.99</ele><time>2025-12-07T01:21:24.000Z</time></trkpt>
        <trkpt lat="28.7553931" lon="104.6651246"><ele>298.92</ele><time>2025-12-07T01:21:32.000Z</time></trkpt>
        <trkpt lat="28.75545" lon="104.665216"><ele>299.34</ele><time>2025-12-07T01:21:42.000Z</time></trkpt>
        <trkpt lat="28.7555585" lon="104.6652334"><ele>301.13</ele><time>2025-12-07T01:21:50.000Z</time></trkpt>
        <trkpt lat="28.7556779" lon="104.6652213"><ele>302.54</ele><time>2025-12-07T01:22:00.000Z</time></trkpt>
        <trkpt lat="28.755783" lon="104.6651864"><ele>301.45</ele><time>2025-12-07T01:22:08.000Z</time></trkpt>
        <trkpt lat="28.7558817" lon="104.6651458"><ele>299.32</ele><time>2025-12-07T01:22:26.000Z</time></trkpt>
        <trkpt lat="28.7559757" lon="104.6651588"><ele>295.7</ele><time>2025-12-07T01:22:36.000Z</time></trkpt>
        <trkpt lat="28.7560627" lon="104.6651998"><ele>292.82</ele><time>2025-12-07T01:22:50.000Z</time></trkpt>
        <trkpt lat="28.756151" lon="104.6652567"><ele>290.53</ele><time>2025-12-07T01:23:00.000Z</time></trkpt>
        <trkpt lat="28.7562352" lon="104.6652329"><ele>289.66</ele><time>2025-12-07T01:23:16.000Z</time></trkpt>
        <trkpt lat="28.7563256" lon="104.6651312"><ele>289.46</ele><time>2025-12-07T01:23:46.000Z</time></trkpt>
        <trkpt lat="28.7563835" lon="104.6650168"><ele>287.28</ele><time>2025-12-07T01:24:08.000Z</time></trkpt>
        <trkpt lat="28.7563831" lon="104.6648999"><ele>284.45</ele><time>2025-12-07T01:24:36.000Z</time></trkpt>
        <trkpt lat="28.7564218" lon="104.6648073"><ele>283.1</ele><time>2025-12-07T01:24:52.000Z</time></trkpt>
        <trkpt lat="28.7564903" lon="104.6647396"><ele>282.02</ele><time>2025-12-07T01:25:32.000Z</time></trkpt>
        <trkpt lat="28.7565032" lon="104.6646444"><ele>278.87</ele><time>2025-12-07T01:25:50.000Z</time></trkpt>
        <trkpt lat="28.7565293" lon="104.6645478"><ele>274.63</ele><time>2025-12-07T01:26:14.000Z</time></trkpt>
        <trkpt lat="28.7565912" lon="104.6644765"><ele>270.61</ele><time>2025-12-07T01:26:30.000Z</time></trkpt>
        <trkpt lat="28.7566654" lon="104.6644148"><ele>268.63</ele><time>2025-12-07T01:26:58.000Z</time></trkpt>
        <trkpt lat="28.7566609" lon="104.6643218"><ele>267.2</ele><time>2025-12-07T01:27:10.000Z</time></trkpt>
        <trkpt lat="28.7566299" lon="104.6642186"><ele>265.35</ele><time>2025-12-07T01:27:20.000Z</time></trkpt>
        <trkpt lat="28.7565826" lon="104.6641141"><ele>263.82</ele><time>2025-12-07T01:27:28.000Z</time></trkpt>
        <trkpt lat="28.7565452" lon="104.6639965"><ele>262.61</ele><time>2025-12-07T01:27:38.000Z</time></trkpt>
        <trkpt lat="28.7565065" lon="104.6638773"><ele>260.5</ele><time>2025-12-07T01:27:48.000Z</time></trkpt>
        <trkpt lat="28.7564958" lon="104.6637649"><ele>257.53</ele><time>2025-12-07T01:27:58.000Z</time></trkpt>
        <trkpt lat="28.7564895" lon="104.6636468"><ele>254.85</ele><time>2025-12-07T01:28:08.000Z</time></trkpt>
        <trkpt lat="28.7564673" lon="104.6635417"><ele>252.81</ele><time>2025-12-07T01:28:18.000Z</time></trkpt>
        <trkpt lat="28.7564635" lon="104.6634228"><ele>250.35</ele><time>2025-12-07T01:28:30.000Z</time></trkpt>
        <trkpt lat="28.7564705" lon="104.6632971"><ele>247.62</ele><time>2025-12-07T01:28:40.000Z</time></trkpt>
        <trkpt lat="28.7564882" lon="104.6631806"><ele>245.16</ele><time>2025-12-07T01:28:50.000Z</time></trkpt>
        <trkpt lat="28.7565088" lon="104.6630719"><ele>243.8</ele><time>2025-12-07T01:29:00.000Z</time></trkpt>
        <trkpt lat="28.7565543" lon="104.6629645"><ele>241.52</ele><time>2025-12-07T01:29:10.000Z</time></trkpt>
        <trkpt lat="28.7566245" lon="104.6628797"><ele>239.83</ele><time>2025-12-07T01:29:20.000Z</time></trkpt>
        <trkpt lat="28.7567207" lon="104.6628529"><ele>238.66</ele><time>2025-12-07T01:29:28.000Z</time></trkpt>
        <trkpt lat="28.7568204" lon="104.6628659"><ele>239.06</ele><time>2025-12-07T01:29:36.000Z</time></trkpt>
        <trkpt lat="28.7569162" lon="104.6628832"><ele>240.67</ele><time>2025-12-07T01:29:46.000Z</time></trkpt>
        <trkpt lat="28.7570177" lon="104.6628916"><ele>242.15</ele><time>2025-12-07T01:29:58.000Z</time></trkpt>
        <trkpt lat="28.757122" lon="104.6628867"><ele>244.02</ele><time>2025-12-07T01:30:06.000Z</time></trkpt>
        <trkpt lat="28.7572191" lon="104.6628561"><ele>244.48</ele><time>2025-12-07T01:30:16.000Z</time></trkpt>
        <trkpt lat="28.7573119" lon="104.6628426"><ele>244.1</ele><time>2025-12-07T01:30:26.000Z</time></trkpt>
        <trkpt lat="28.7574056" lon="104.6628295"><ele>241.52</ele><time>2025-12-07T01:30:36.000Z</time></trkpt>
        <trkpt lat="28.7574713" lon="104.6628865"><ele>238.93</ele><time>2025-12-07T01:30:46.000Z</time></trkpt>
        <trkpt lat="28.7575368" lon="104.6629678"><ele>238.06</ele><time>2025-12-07T01:30:58.000Z</time></trkpt>
        <trkpt lat="28.7575368" lon="104.6629678"><ele>238.06</ele><time>2025-12-07T01:31:14.000Z</time></trkpt>
      </trkseg>
  </trk>
</gpx>